createdAt,value
2019-05-19T00:02:22.904Z,12.27
2019-05-19T00:04:53.641Z,12.13
2019-05-19T00:07:24.073Z,12.11
2019-05-19T00:09:54.951Z,12.20
2019-05-19T00:12:26.149Z,12.34
2019-05-19T00:14:56.606Z,12.34
2019-05-19T00:17:27.095Z,12.26
2019-05-19T00:19:57.897Z,12.25
2019-05-19T00:22:28.345Z,12.27
2019-05-19T00:24:58.828Z,12.14
2019-05-19T00:27:29.665Z,12.17
2019-05-19T00:30:00.102Z,12.09
2019-05-19T00:32:30.578Z,12.06
2019-05-19T00:35:02.303Z,12.04
2019-05-19T00:37:32.800Z,12.07
2019-05-19T00:40:03.336Z,12.14
2019-05-19T00:42:33.761Z,12.31
2019-05-19T00:45:05.376Z,12.31
2019-05-19T00:47:35.871Z,12.34
2019-05-19T00:50:07.187Z,12.26
2019-05-19T00:52:37.958Z,12.29
2019-05-19T00:55:09.375Z,12.14
2019-05-19T00:57:39.818Z,11.99
2019-05-19T01:00:11.198Z,11.82
2019-05-19T01:02:41.728Z,11.77
2019-05-19T01:05:13.067Z,11.64
2019-05-19T01:07:43.512Z,11.59
2019-05-19T01:10:15.247Z,11.57
2019-05-19T01:12:46.250Z,11.61
2019-05-19T01:15:17.749Z,11.64
2019-05-19T01:17:48.187Z,11.64
2019-05-19T01:20:19.023Z,11.64
2019-05-19T01:22:49.506Z,11.56
2019-05-19T01:25:19.941Z,11.53
2019-05-19T01:27:50.390Z,11.44
2019-05-19T01:30:21.194Z,11.38
2019-05-19T01:32:51.626Z,11.27
2019-05-19T01:35:22.070Z,11.39
2019-05-19T01:37:52.563Z,11.65
2019-05-19T01:40:23.387Z,11.69
2019-05-19T01:42:53.875Z,11.69
2019-05-19T01:45:25.986Z,11.67
2019-05-19T01:47:56.423Z,11.59
2019-05-19T01:50:27.554Z,11.57
2019-05-19T01:52:58.159Z,11.59
2019-05-19T01:55:28.594Z,11.68
2019-05-19T01:57:59.394Z,11.55
2019-05-19T02:00:29.889Z,11.48
2019-05-19T02:03:00.372Z,11.59
2019-05-19T02:05:30.810Z,11.69
2019-05-19T02:08:01.307Z,11.69
2019-05-19T02:10:32.867Z,11.70
2019-05-19T02:13:05.131Z,11.73
2019-05-19T02:15:35.487Z,11.67
2019-05-19T02:18:06.378Z,11.64
2019-05-19T02:20:36.819Z,11.56
2019-05-19T02:23:07.318Z,11.47
2019-05-19T02:25:37.758Z,11.41
2019-05-19T02:28:08.507Z,11.31
2019-05-19T02:30:39.580Z,11.28
2019-05-19T02:33:10.019Z,11.27
2019-05-19T02:35:40.476Z,11.37
2019-05-19T02:38:11.257Z,11.48
2019-05-19T02:40:43.588Z,11.44
2019-05-19T02:43:15.625Z,11.51
2019-05-19T02:45:49.020Z,11.46
2019-05-19T02:48:20.695Z,11.56
2019-05-19T02:50:53.484Z,11.65
2019-05-19T02:53:26.286Z,11.77
2019-05-19T02:55:57.328Z,11.73
2019-05-19T02:58:27.912Z,11.69
2019-05-19T03:00:58.357Z,11.61
2019-05-19T03:03:28.855Z,11.64
2019-05-19T03:05:59.686Z,11.58
2019-05-19T03:08:30.155Z,11.48
2019-05-19T03:11:01.381Z,11.51
2019-05-19T03:13:32.287Z,11.31
2019-05-19T03:16:02.722Z,11.18
2019-05-19T03:18:33.170Z,11.17
2019-05-19T03:21:11.273Z,11.12
2019-05-19T03:23:36.622Z,11.23
2019-05-19T03:26:07.504Z,11.36
2019-05-19T03:28:37.944Z,11.39
2019-05-19T03:31:30.172Z,11.33
2019-05-19T03:34:00.693Z,11.37
2019-05-19T03:36:31.118Z,11.29
2019-05-19T03:39:01.992Z,11.20
2019-05-19T03:41:32.419Z,11.09
2019-05-19T03:44:02.888Z,10.93
2019-05-19T03:46:33.383Z,10.84
2019-05-19T03:49:03.828Z,10.74
2019-05-19T03:51:34.262Z,10.82
2019-05-19T03:54:04.744Z,10.89
2019-05-19T03:56:35.188Z,11.10
2019-05-19T03:59:06.040Z,11.16
2019-05-19T04:01:36.539Z,11.24
2019-05-19T04:04:07.411Z,11.30
2019-05-19T04:06:38.215Z,11.34
2019-05-19T04:09:09.088Z,11.34
2019-05-19T04:11:39.541Z,11.31
2019-05-19T04:14:09.971Z,11.19
2019-05-19T04:16:40.825Z,11.17
2019-05-19T04:19:11.609Z,11.23
2019-05-19T04:21:48.720Z,11.27
2019-05-19T04:24:15.159Z,11.32
2019-05-19T04:26:45.634Z,11.32
2019-05-19T04:29:17.339Z,11.36
2019-05-19T04:31:47.827Z,11.44
2019-05-19T04:34:18.267Z,11.46
2019-05-19T04:36:48.709Z,11.42
2019-05-19T04:39:19.197Z,11.43
2019-05-19T04:41:50.103Z,11.44
2019-05-19T04:44:20.977Z,11.51
2019-05-19T04:46:51.828Z,11.57
2019-05-19T04:49:23.542Z,11.58
2019-05-19T04:52:05.965Z,11.60
2019-05-19T04:54:27.559Z,11.75
2019-05-19T04:56:58.156Z,11.80
2019-05-19T04:59:28.596Z,11.95
2019-05-19T05:01:59.091Z,11.99
2019-05-19T05:04:29.819Z,11.96
2019-05-19T05:07:00.682Z,11.95
2019-05-19T05:09:31.532Z,11.91
2019-05-19T05:12:01.976Z,11.92
2019-05-19T05:14:32.618Z,11.99
2019-05-19T05:17:03.115Z,12.08
2019-05-19T05:19:33.948Z,12.19
2019-05-19T05:22:04.389Z,12.23
2019-05-19T05:24:34.876Z,12.30
2019-05-19T05:27:06.383Z,12.34
2019-05-19T05:29:36.820Z,12.35
2019-05-19T05:32:07.313Z,12.41
2019-05-19T05:34:38.059Z,12.49
2019-05-19T05:37:08.866Z,12.52
2019-05-19T05:39:39.706Z,12.54
2019-05-19T05:42:10.146Z,12.57
2019-05-19T05:44:40.583Z,12.57
2019-05-19T05:47:11.135Z,12.64
2019-05-19T05:49:41.579Z,12.64
2019-05-19T05:52:12.810Z,12.76
2019-05-19T05:54:43.289Z,12.85
2019-05-19T05:57:13.727Z,12.97
2019-05-19T05:59:45.198Z,13.13
2019-05-19T06:02:15.981Z,13.34
2019-05-19T06:04:46.763Z,13.45
2019-05-19T06:07:17.198Z,13.53
2019-05-19T06:09:48.077Z,13.52
2019-05-19T06:12:18.880Z,13.53
2019-05-19T06:14:49.319Z,13.60
2019-05-19T06:17:20.554Z,13.79
2019-05-19T06:19:51.398Z,13.99
2019-05-19T06:22:22.230Z,14.12
2019-05-19T06:24:53.010Z,14.32
2019-05-19T06:27:23.841Z,14.45
2019-05-19T06:29:54.635Z,14.62
2019-05-19T06:32:47.601Z,14.69
2019-05-19T06:35:19.024Z,14.74
2019-05-19T06:37:49.924Z,14.91
2019-05-19T06:40:20.403Z,15.07
2019-05-19T06:42:51.659Z,15.18
2019-05-19T06:45:22.521Z,15.29
2019-05-19T06:47:53.393Z,15.48
2019-05-19T06:50:23.917Z,15.56
2019-05-19T06:52:54.658Z,15.64
2019-05-19T06:55:25.606Z,15.75
2019-05-19T06:57:56.700Z,15.82
2019-05-19T07:00:27.533Z,15.88
2019-05-19T07:02:58.049Z,16.01
2019-05-19T07:05:28.491Z,16.17
2019-05-19T07:07:58.918Z,16.24
2019-05-19T07:10:29.791Z,16.42
2019-05-19T07:13:00.948Z,16.54
2019-05-19T07:15:31.982Z,16.69
2019-05-19T07:18:02.512Z,16.85
2019-05-19T07:20:32.967Z,17.07
2019-05-19T07:23:04.383Z,17.22
2019-05-19T07:25:34.899Z,17.33
2019-05-19T07:28:05.678Z,17.65
2019-05-19T07:30:36.132Z,17.81
2019-05-19T07:33:06.639Z,18.17
2019-05-19T07:35:37.442Z,18.17
2019-05-19T07:38:07.904Z,18.37
2019-05-19T07:40:38.404Z,18.67
2019-05-19T07:43:09.113Z,18.75
2019-05-19T07:45:39.552Z,18.84
2019-05-19T07:48:10.617Z,18.95
2019-05-19T07:50:41.460Z,19.15
2019-05-19T07:53:11.895Z,19.28
2019-05-19T07:55:42.390Z,19.41
2019-05-19T07:58:13.388Z,19.37
2019-05-19T08:00:43.823Z,19.51
2019-05-19T08:03:14.926Z,19.65
2019-05-19T08:05:45.701Z,19.86
2019-05-19T08:08:16.599Z,19.95
2019-05-19T08:10:47.142Z,20.05
2019-05-19T08:13:17.737Z,20.13
2019-05-19T08:15:49.249Z,20.33
2019-05-19T08:18:19.747Z,20.36
2019-05-19T08:20:50.590Z,20.51
2019-05-19T08:23:21.040Z,20.64
2019-05-19T08:25:52.383Z,20.74
2019-05-19T08:28:23.154Z,20.90
2019-05-19T08:30:54.662Z,20.93
2019-05-19T08:33:26.669Z,21.18
2019-05-19T08:35:57.517Z,21.31
2019-05-19T08:38:28.659Z,21.45
2019-05-19T08:40:59.249Z,21.43
2019-05-19T08:43:29.695Z,21.45
2019-05-19T08:46:00.526Z,21.60
2019-05-19T08:48:31.339Z,21.80
2019-05-19T08:51:01.815Z,21.85
2019-05-19T08:53:32.263Z,21.94
2019-05-19T08:56:02.760Z,21.92
2019-05-19T08:58:33.193Z,22.02
2019-05-19T09:01:03.648Z,22.04
2019-05-19T09:03:34.143Z,22.05
2019-05-19T09:06:04.618Z,22.17
2019-05-19T09:08:35.352Z,22.20
2019-05-19T09:11:06.158Z,22.32
2019-05-19T09:13:36.595Z,22.33
2019-05-19T09:16:07.037Z,22.27
2019-05-19T09:18:38.475Z,22.38
2019-05-19T09:21:09.012Z,22.46
2019-05-19T09:23:40.222Z,22.72
2019-05-19T09:26:11.033Z,22.93
2019-05-19T09:28:41.561Z,23.03
2019-05-19T09:31:12.358Z,23.00
2019-05-19T09:33:42.851Z,23.24
2019-05-19T09:36:14.751Z,23.40
2019-05-19T09:38:45.835Z,23.35
2019-05-19T09:41:16.306Z,23.29
2019-05-19T09:43:46.757Z,23.36
2019-05-19T09:46:17.197Z,23.39
2019-05-19T09:48:49.364Z,23.28
2019-05-19T09:51:20.182Z,23.18
2019-05-19T09:53:51.034Z,23.29
2019-05-19T09:56:21.524Z,23.43
2019-05-19T09:58:51.966Z,23.41
2019-05-19T10:01:22.402Z,23.42
2019-05-19T10:03:52.892Z,23.45
2019-05-19T10:06:23.808Z,23.49
2019-05-19T10:08:57.570Z,23.58
2019-05-19T10:12:06.921Z,23.62
2019-05-19T10:14:38.171Z,23.60
2019-05-19T10:17:09.013Z,23.72
2019-05-19T10:19:39.802Z,23.69
2019-05-19T10:22:10.249Z,23.35
2019-05-19T10:24:40.723Z,23.14
2019-05-19T10:27:11.213Z,23.20
2019-05-19T10:29:41.671Z,23.34
2019-05-19T10:32:12.796Z,23.31
2019-05-19T10:34:43.291Z,23.41
2019-05-19T10:37:14.804Z,23.51
2019-05-19T10:39:45.712Z,23.54
2019-05-19T10:42:16.670Z,23.69
2019-05-19T10:44:47.120Z,23.86
2019-05-19T10:47:17.586Z,23.93
2019-05-19T10:49:48.080Z,23.99
2019-05-19T10:52:18.583Z,23.91
2019-05-19T10:54:49.873Z,23.92
2019-05-19T10:57:20.746Z,23.78
2019-05-19T10:59:51.202Z,23.87
2019-05-19T11:02:21.650Z,23.98
2019-05-19T11:04:52.531Z,24.04
2019-05-19T11:07:23.042Z,24.18
2019-05-19T11:09:53.527Z,24.18
2019-05-19T11:12:24.026Z,24.09
2019-05-19T11:14:54.456Z,24.07
2019-05-19T11:17:25.195Z,24.20
2019-05-19T11:19:56.089Z,24.32
2019-05-19T11:22:27.166Z,24.36
2019-05-19T11:24:58.289Z,24.32
2019-05-19T11:27:29.207Z,24.47
2019-05-19T11:30:00.004Z,24.52
2019-05-19T11:32:30.444Z,24.53
2019-05-19T11:35:01.708Z,24.42
2019-05-19T11:37:32.171Z,24.37
2019-05-19T11:40:02.610Z,24.31
2019-05-19T11:42:33.208Z,24.39
2019-05-19T11:45:04.119Z,24.56
2019-05-19T11:47:35.061Z,24.61
2019-05-19T11:50:06.099Z,24.49
2019-05-19T11:52:36.628Z,24.47
2019-05-19T11:55:07.117Z,24.70
2019-05-19T11:57:37.955Z,24.92
2019-05-19T12:00:08.643Z,24.90
2019-05-19T12:02:39.084Z,24.83
2019-05-19T12:05:10.119Z,24.86
2019-05-19T12:07:40.552Z,24.91
2019-05-19T12:10:11.217Z,24.75
2019-05-19T12:12:41.724Z,24.78
2019-05-19T12:15:12.763Z,25.05
2019-05-19T12:17:46.022Z,25.20
2019-05-19T12:20:16.824Z,25.45
2019-05-19T12:22:47.274Z,25.57
2019-05-19T12:25:17.735Z,25.56
2019-05-19T12:27:48.219Z,25.27
2019-05-19T12:30:20.039Z,24.99
2019-05-19T12:32:50.494Z,24.65
2019-05-19T12:35:21.274Z,24.47
2019-05-19T12:37:51.707Z,24.39
2019-05-19T12:40:22.831Z,24.26
2019-05-19T12:42:53.576Z,24.24
2019-05-19T12:45:24.149Z,24.28
2019-05-19T12:47:54.667Z,24.29
2019-05-19T12:50:25.592Z,24.36
2019-05-19T12:52:56.344Z,24.43
2019-05-19T12:55:27.070Z,24.39
2019-05-19T12:57:57.795Z,24.40
2019-05-19T13:00:28.638Z,24.36
2019-05-19T13:02:59.084Z,24.59
2019-05-19T13:05:29.590Z,24.73
2019-05-19T13:08:00.456Z,25.25
2019-05-19T13:10:31.282Z,25.68
2019-05-19T13:13:02.505Z,25.94
2019-05-19T13:15:33.299Z,25.89
2019-05-19T13:18:03.738Z,25.98
2019-05-19T13:20:35.275Z,26.10
2019-05-19T13:23:06.296Z,26.33
2019-05-19T13:25:36.755Z,26.49
2019-05-19T13:28:07.562Z,26.66
2019-05-19T13:30:38.401Z,26.57
2019-05-19T13:33:08.852Z,26.51
2019-05-19T13:35:39.325Z,26.48
2019-05-19T13:38:09.762Z,26.32
2019-05-19T13:40:42.317Z,26.65
2019-05-19T13:43:13.599Z,26.76
2019-05-19T13:45:44.352Z,26.58
2019-05-19T13:48:15.640Z,26.45
2019-05-19T13:50:46.520Z,26.42
2019-05-19T13:53:17.286Z,26.50
2019-05-19T13:55:47.712Z,26.13
2019-05-19T13:58:18.258Z,25.90
2019-05-19T14:00:48.747Z,25.87
2019-05-19T14:03:19.172Z,25.98
2019-05-19T14:05:50.080Z,26.16
2019-05-19T14:08:20.505Z,26.36
2019-05-19T14:10:50.935Z,26.29
2019-05-19T14:13:21.425Z,25.99
2019-05-19T14:15:52.227Z,25.78
2019-05-19T14:18:23.934Z,25.39
2019-05-19T14:20:55.082Z,25.22
2019-05-19T14:23:25.695Z,25.12
2019-05-19T14:25:56.126Z,25.00
2019-05-19T14:28:26.780Z,24.97
2019-05-19T14:30:57.218Z,24.81
2019-05-19T14:33:28.052Z,24.59
2019-05-19T14:35:58.927Z,24.47
2019-05-19T14:38:29.727Z,24.38
2019-05-19T14:41:00.874Z,24.37
2019-05-19T14:43:31.375Z,24.30
2019-05-19T14:46:01.853Z,24.24
2019-05-19T14:48:32.287Z,24.29
2019-05-19T14:51:03.193Z,24.33
2019-05-19T14:53:33.640Z,24.33
2019-05-19T14:56:04.079Z,24.30
2019-05-19T14:58:34.565Z,24.30
2019-05-19T15:01:05.013Z,24.36
2019-05-19T15:03:35.472Z,24.33
2019-05-19T15:06:06.178Z,24.28
2019-05-19T15:08:36.653Z,24.29
2019-05-19T15:11:07.407Z,24.24
2019-05-19T15:13:37.973Z,24.34
2019-05-19T15:16:08.940Z,24.24
2019-05-19T15:18:40.215Z,24.22
2019-05-19T15:21:10.733Z,24.17
2019-05-19T15:23:41.559Z,24.04
2019-05-19T15:26:12.398Z,23.99
2019-05-19T15:28:42.884Z,23.93
2019-05-19T15:31:13.320Z,23.89
2019-05-19T15:33:44.707Z,23.95
2019-05-19T15:36:15.235Z,24.02
2019-05-19T15:38:45.674Z,24.01
2019-05-19T15:41:17.912Z,23.84
2019-05-19T15:43:48.830Z,23.89
2019-05-19T15:46:19.288Z,23.83
2019-05-19T15:48:49.731Z,23.86
2019-05-19T15:51:28.573Z,23.84
2019-05-19T15:53:52.556Z,23.82
2019-05-19T15:56:23.328Z,23.69
2019-05-19T15:58:53.934Z,23.75
2019-05-19T16:01:24.405Z,23.73
2019-05-19T16:03:55.156Z,23.63
2019-05-19T16:06:26.547Z,23.61
2019-05-19T16:08:56.986Z,23.60
2019-05-19T16:11:27.435Z,23.56
2019-05-19T16:13:57.943Z,23.56
2019-05-19T16:16:28.385Z,23.50
2019-05-19T16:18:59.510Z,23.50
2019-05-19T16:21:30.277Z,23.46
2019-05-19T16:24:00.723Z,23.41
2019-05-19T16:26:31.176Z,23.41
2019-05-19T16:29:01.681Z,23.40
2019-05-19T16:31:32.123Z,23.41
2019-05-19T16:34:03.314Z,23.28
2019-05-19T16:36:35.859Z,23.29
2019-05-19T16:39:07.788Z,23.30
2019-05-19T16:41:38.226Z,23.29
2019-05-19T16:44:08.746Z,23.29
2019-05-19T16:46:39.181Z,23.31
2019-05-19T16:49:09.667Z,23.23
2019-05-19T16:51:40.164Z,23.26
2019-05-19T16:54:16.131Z,23.18
2019-05-19T16:56:47.314Z,23.21
2019-05-19T16:59:17.768Z,23.18
2019-05-19T17:01:48.247Z,23.16
2019-05-19T17:04:18.879Z,23.08
2019-05-19T17:06:49.326Z,23.13
2019-05-19T17:09:20.206Z,23.05
2019-05-19T17:11:50.722Z,23.00
2019-05-19T17:14:21.574Z,22.96
2019-05-19T17:16:52.418Z,22.87
2019-05-19T17:19:25.264Z,22.88
2019-05-19T17:21:55.810Z,22.82
2019-05-19T17:24:27.361Z,22.80
2019-05-19T17:26:58.183Z,22.81
2019-05-19T17:29:28.678Z,22.69
2019-05-19T17:32:06.039Z,22.71
2019-05-19T17:34:33.644Z,22.73
2019-05-19T17:37:04.079Z,22.72
2019-05-19T17:39:34.851Z,22.79
2019-05-19T17:42:05.387Z,22.74
2019-05-19T17:44:36.272Z,22.63
2019-05-19T17:47:09.266Z,22.60
2019-05-19T17:49:40.048Z,22.63
2019-05-19T17:52:11.117Z,22.64
2019-05-19T17:54:42.012Z,22.56
2019-05-19T17:57:14.558Z,22.51
2019-05-19T17:59:48.118Z,22.42
2019-05-19T18:02:18.955Z,22.41
2019-05-19T18:04:49.459Z,22.33
2019-05-19T18:07:19.901Z,22.33
2019-05-19T18:09:50.369Z,22.26
2019-05-19T18:12:22.865Z,22.23
2019-05-19T18:14:53.722Z,22.27
2019-05-19T18:17:24.241Z,22.19
2019-05-19T18:19:55.058Z,22.06
2019-05-19T18:22:25.620Z,21.94
2019-05-19T18:24:56.703Z,21.83
2019-05-19T18:27:27.822Z,21.73
2019-05-19T18:29:58.444Z,21.63
2019-05-19T18:32:29.257Z,21.57
2019-05-19T18:35:00.071Z,21.48
2019-05-19T18:37:31.523Z,21.34
2019-05-19T18:40:03.265Z,21.23
2019-05-19T18:42:33.734Z,21.21
2019-05-19T18:45:07.578Z,21.12
2019-05-19T18:47:38.189Z,21.04
2019-05-19T18:50:08.872Z,20.94
2019-05-19T18:52:39.810Z,20.94
2019-05-19T18:55:11.948Z,20.83
2019-05-19T18:57:44.865Z,20.80
2019-05-19T19:00:23.930Z,20.66
2019-05-19T19:02:55.888Z,20.60
2019-05-19T19:05:28.636Z,20.44
2019-05-19T19:07:59.345Z,20.37
2019-05-19T19:10:29.979Z,20.26
2019-05-19T19:13:02.193Z,20.13
2019-05-19T19:15:32.635Z,19.96
2019-05-19T19:18:05.959Z,20.00
2019-05-19T19:20:36.617Z,19.98
2019-05-19T19:23:13.124Z,19.94
2019-05-19T19:25:46.624Z,19.80
2019-05-19T19:28:17.773Z,19.70
2019-05-19T19:30:48.289Z,19.69
2019-05-19T19:33:20.268Z,19.60
2019-05-19T19:35:50.813Z,19.58
2019-05-19T19:38:21.593Z,19.38
2019-05-19T19:40:54.344Z,19.29
2019-05-19T19:43:25.085Z,19.29
2019-05-19T19:45:55.504Z,19.29
2019-05-19T19:48:26.500Z,19.20
2019-05-19T19:50:58.501Z,19.12
2019-05-19T19:53:30.372Z,19.06
2019-05-19T19:56:01.634Z,18.98
2019-05-19T19:58:32.533Z,18.79
2019-05-19T20:01:06.355Z,18.82
2019-05-19T20:03:40.149Z,18.61
2019-05-19T20:06:09.342Z,18.48
2019-05-19T20:08:40.184Z,18.54
2019-05-19T20:11:11.252Z,18.37
2019-05-19T20:13:42.097Z,18.53
2019-05-19T20:16:14.005Z,18.46
2019-05-19T20:18:45.722Z,18.37
2019-05-19T20:21:17.878Z,18.34
2019-05-19T20:23:48.344Z,18.07
2019-05-19T20:26:18.827Z,17.90
2019-05-19T20:28:49.274Z,17.94
2019-05-19T20:31:19.718Z,17.88
2019-05-19T20:33:50.525Z,18.02
2019-05-19T20:36:21.029Z,18.08
2019-05-19T20:38:51.494Z,18.11
2019-05-19T20:41:21.982Z,18.10
2019-05-19T20:43:54.923Z,18.05
2019-05-19T20:46:26.885Z,18.01
2019-05-19T20:48:57.337Z,17.91
2019-05-19T20:51:27.794Z,17.81
2019-05-19T20:53:59.254Z,17.77
2019-05-19T20:56:30.549Z,17.67
2019-05-19T20:59:01.481Z,17.67
2019-05-19T21:01:32.062Z,17.39
2019-05-19T21:04:03.416Z,17.54
2019-05-19T21:06:35.242Z,17.73
2019-05-19T21:09:06.683Z,17.85
2019-05-19T21:11:37.637Z,17.88
2019-05-19T21:14:08.793Z,17.80
2019-05-19T21:16:39.225Z,17.71
2019-05-19T21:19:10.082Z,17.78
2019-05-19T21:21:40.907Z,17.76
2019-05-19T21:24:11.502Z,17.77
2019-05-19T21:26:42.394Z,17.36
2019-05-19T21:29:12.831Z,17.36
2019-05-19T21:31:43.268Z,17.39
2019-05-19T21:34:15.275Z,17.33
2019-05-19T21:36:46.058Z,17.38
2019-05-19T21:39:16.503Z,17.05
2019-05-19T21:41:47.405Z,17.05
2019-05-19T21:44:17.841Z,17.16
2019-05-19T21:46:48.293Z,17.30
2019-05-19T21:49:19.200Z,17.09
2019-05-19T21:51:50.038Z,17.09
2019-05-19T21:54:20.783Z,17.04
2019-05-19T21:56:51.571Z,16.96
2019-05-19T21:59:22.355Z,16.92
2019-05-19T22:01:53.391Z,16.66
2019-05-19T22:04:24.266Z,16.72
2019-05-19T22:07:02.741Z,16.61
2019-05-19T22:09:34.031Z,16.50
2019-05-19T22:12:04.866Z,16.54
2019-05-19T22:14:35.642Z,16.66
2019-05-19T22:17:07.394Z,16.40
2019-05-19T22:19:37.850Z,16.45
2019-05-19T22:22:08.685Z,16.48
2019-05-19T22:24:39.257Z,16.53
2019-05-19T22:27:09.726Z,16.41
2019-05-19T22:29:41.450Z,16.06
2019-05-19T22:32:11.955Z,16.17
2019-05-19T22:34:42.413Z,16.06
2019-05-19T22:37:13.536Z,15.99
2019-05-19T22:39:44.027Z,16.06
2019-05-19T22:42:14.475Z,16.09
2019-05-19T22:44:44.922Z,16.06
2019-05-19T22:47:17.204Z,15.85
2019-05-19T22:49:48.020Z,15.75
2019-05-19T22:52:18.463Z,15.80
2019-05-19T22:54:49.298Z,15.99
2019-05-19T22:57:20.156Z,15.98
2019-05-19T22:59:50.583Z,16.13
2019-05-19T23:02:21.075Z,16.16
2019-05-19T23:04:51.530Z,16.13
2019-05-19T23:07:21.974Z,16.08
2019-05-19T23:09:52.490Z,16.02
2019-05-19T23:12:23.367Z,15.99
2019-05-19T23:14:53.826Z,15.98
2019-05-19T23:17:24.909Z,15.82
2019-05-19T23:19:56.054Z,15.56
2019-05-19T23:22:27.083Z,15.36
2019-05-19T23:24:57.881Z,15.35
2019-05-19T23:27:28.329Z,15.41
2019-05-19T23:29:59.166Z,15.43
2019-05-19T23:32:29.775Z,15.48
2019-05-19T23:35:00.578Z,15.39
2019-05-19T23:37:31.448Z,15.35
2019-05-19T23:40:01.943Z,15.22
2019-05-19T23:42:32.383Z,15.26
2019-05-19T23:45:02.835Z,15.33
2019-05-19T23:47:33.620Z,15.39
2019-05-19T23:50:04.395Z,15.28
2019-05-19T23:52:34.875Z,15.19
2019-05-19T23:55:06.176Z,15.17
2019-05-19T23:57:36.611Z,14.98
